sensor_id;sensor_type;location;lat;lon;timestamp;P1;durP1;ratioP1;P2;durP2;ratioP2
30519;SDS011;17300;50.374;8.006;2023-05-07T00:01:03;1.20;;;0.90;;
30519;SDS011;17300;50.374;8.006;2023-05-07T00:03:30;0.83;;;0.70;;
30519;SDS011;17300;50.374;8.006;2023-05-07T00:05:57;0.80;;;0.80;;
30519;SDS011;17300;50.374;8.006;2023-05-07T00:08:25;0.80;;;0.80;;
30519;SDS011;17300;50.374;8.006;2023-05-07T00:10:52;0.70;;;0.70;;
30519;SDS011;17300;50.374;8.006;2023-05-07T00:13:18;1.00;;;0.80;;
30519;SDS011;17300;50.374;8.006;2023-05-07T00:15:45;1.87;;;0.87;;
30519;SDS011;17300;50.374;8.006;2023-05-07T00:18:12;0.80;;;0.80;;
30519;SDS011;17300;50.374;8.006;2023-05-07T00:20:38;0.80;;;0.80;;
30519;SDS011;17300;50.374;8.006;2023-05-07T00:23:05;0.80;;;0.80;;
30519;SDS011;17300;50.374;8.006;2023-05-07T00:25:33;1.17;;;1.00;;
30519;SDS011;17300;50.374;8.006;2023-05-07T00:28:00;1.57;;;1.00;;
30519;SDS011;17300;50.374;8.006;2023-05-07T00:30:28;0.87;;;0.87;;
30519;SDS011;17300;50.374;8.006;2023-05-07T00:32:55;1.27;;;0.90;;
30519;SDS011;17300;50.374;8.006;2023-05-07T00:35:22;0.83;;;0.80;;
30519;SDS011;17300;50.374;8.006;2023-05-07T00:37:48;0.93;;;0.90;;
30519;SDS011;17300;50.374;8.006;2023-05-07T00:40:15;1.00;;;0.80;;
30519;SDS011;17300;50.374;8.006;2023-05-07T00:42:43;0.83;;;0.83;;
30519;SDS011;17300;50.374;8.006;2023-05-07T00:45:11;1.20;;;0.80;;
30519;SDS011;17300;50.374;8.006;2023-05-07T00:47:38;0.80;;;0.80;;
30519;SDS011;17300;50.374;8.006;2023-05-07T00:50:06;1.00;;;0.80;;
30519;SDS011;17300;50.374;8.006;2023-05-07T00:52:34;0.93;;;0.83;;
30519;SDS011;17300;50.374;8.006;2023-05-07T00:55:03;0.63;;;0.60;;
30519;SDS011;17300;50.374;8.006;2023-05-07T00:57:32;0.70;;;0.70;;
30519;SDS011;17300;50.374;8.006;2023-05-07T01:00:03;1.03;;;0.93;;
30519;SDS011;17300;50.374;8.006;2023-05-07T01:02:31;0.80;;;0.80;;
30519;SDS011;17300;50.374;8.006;2023-05-07T01:04:58;1.17;;;0.90;;
30519;SDS011;17300;50.374;8.006;2023-05-07T01:07:26;1.20;;;0.90;;
30519;SDS011;17300;50.374;8.006;2023-05-07T01:09:54;0.70;;;0.60;;
30519;SDS011;17300;50.374;8.006;2023-05-07T01:12:20;1.13;;;1.00;;
30519;SDS011;17300;50.374;8.006;2023-05-07T01:14:47;1.03;;;0.83;;
30519;SDS011;17300;50.374;8.006;2023-05-07T01:17:16;0.87;;;0.83;;
30519;SDS011;17300;50.374;8.006;2023-05-07T01:19:43;0.90;;;0.90;;
30519;SDS011;17300;50.374;8.006;2023-05-07T01:22:10;0.97;;;0.80;;
30519;SDS011;17300;50.374;8.006;2023-05-07T01:24:38;0.80;;;0.80;;
30519;SDS011;17300;50.374;8.006;2023-05-07T01:27:05;1.67;;;1.03;;
30519;SDS011;17300;50.374;8.006;2023-05-07T01:29:32;1.00;;;1.00;;
30519;SDS011;17300;50.374;8.006;2023-05-07T01:31:59;0.90;;;0.90;;
30519;SDS011;17300;50.374;8.006;2023-05-07T01:34:27;1.70;;;1.00;;
30519;SDS011;17300;50.374;8.006;2023-05-07T01:36:56;1.10;;;1.00;;
30519;SDS011;17300;50.374;8.006;2023-05-07T01:39:25;1.97;;;1.03;;
30519;SDS011;17300;50.374;8.006;2023-05-07T01:41:54;1.70;;;1.00;;
30519;SDS011;17300;50.374;8.006;2023-05-07T01:44:22;1.13;;;1.00;;
30519;SDS011;17300;50.374;8.006;2023-05-07T01:46:49;0.93;;;0.90;;
30519;SDS011;17300;50.374;8.006;2023-05-07T01:49:16;0.77;;;0.77;;
30519;SDS011;17300;50.374;8.006;2023-05-07T01:51:43;0.70;;;0.70;;
30519;SDS011;17300;50.374;8.006;2023-05-07T01:54:10;0.77;;;0.77;;
30519;SDS011;17300;50.374;8.006;2023-05-07T01:56:37;0.80;;;0.80;;
30519;SDS011;17300;50.374;8.006;2023-05-07T01:59:05;2.20;;;1.37;;
30519;SDS011;17300;50.374;8.006;2023-05-07T02:01:31;0.87;;;0.87;;
30519;SDS011;17300;50.374;8.006;2023-05-07T02:03:58;0.80;;;0.80;;
30519;SDS011;17300;50.374;8.006;2023-05-07T02:06:24;2.50;;;0.80;;
30519;SDS011;17300;50.374;8.006;2023-05-07T02:08:51;0.93;;;0.90;;
30519;SDS011;17300;50.374;8.006;2023-05-07T02:11:18;1.27;;;1.00;;
30519;SDS011;17300;50.374;8.006;2023-05-07T02:13:45;1.07;;;0.90;;
30519;SDS011;17300;50.374;8.006;2023-05-07T02:16:13;0.80;;;0.80;;
30519;SDS011;17300;50.374;8.006;2023-05-07T02:18:40;0.80;;;0.80;;
30519;SDS011;17300;50.374;8.006;2023-05-07T02:21:06;1.00;;;0.90;;
30519;SDS011;17300;50.374;8.006;2023-05-07T02:23:33;1.50;;;0.83;;
30519;SDS011;17300;50.374;8.006;2023-05-07T02:26:00;0.87;;;0.80;;
30519;SDS011;17300;50.374;8.006;2023-05-07T02:28:26;0.70;;;0.70;;
30519;SDS011;17300;50.374;8.006;2023-05-07T02:30:53;0.90;;;0.90;;
30519;SDS011;17300;50.374;8.006;2023-05-07T02:33:21;0.80;;;0.80;;
30519;SDS011;17300;50.374;8.006;2023-05-07T02:35:47;1.83;;;1.20;;
30519;SDS011;17300;50.374;8.006;2023-05-07T02:38:14;2.50;;;0.97;;
30519;SDS011;17300;50.374;8.006;2023-05-07T02:40:41;0.90;;;0.90;;
30519;SDS011;17300;50.374;8.006;2023-05-07T02:43:08;1.00;;;0.90;;
30519;SDS011;17300;50.374;8.006;2023-05-07T02:45:35;0.97;;;0.93;;
30519;SDS011;17300;50.374;8.006;2023-05-07T02:48:02;0.90;;;0.90;;
30519;SDS011;17300;50.374;8.006;2023-05-07T02:50:31;0.70;;;0.67;;
30519;SDS011;17300;50.374;8.006;2023-05-07T02:52:58;2.33;;;1.00;;
30519;SDS011;17300;50.374;8.006;2023-05-07T02:55:25;0.90;;;0.90;;
30519;SDS011;17300;50.374;8.006;2023-05-07T02:57:51;1.10;;;1.00;;
30519;SDS011;17300;50.374;8.006;2023-05-07T03:00:19;1.77;;;0.87;;
30519;SDS011;17300;50.374;8.006;2023-05-07T03:02:46;0.80;;;0.80;;
30519;SDS011;17300;50.374;8.006;2023-05-07T03:05:13;1.10;;;0.90;;
30519;SDS011;17300;50.374;8.006;2023-05-07T03:07:41;0.90;;;0.90;;
30519;SDS011;17300;50.374;8.006;2023-05-07T03:10:10;1.10;;;1.00;;
30519;SDS011;17300;50.374;8.006;2023-05-07T03:12:37;1.40;;;1.10;;
30519;SDS011;17300;50.374;8.006;2023-05-07T03:15:04;1.20;;;1.00;;
30519;SDS011;17300;50.374;8.006;2023-05-07T03:17:31;0.83;;;0.83;;
30519;SDS011;17300;50.374;8.006;2023-05-07T03:19:58;1.40;;;1.10;;
30519;SDS011;17300;50.374;8.006;2023-05-07T03:22:24;1.10;;;0.97;;
30519;SDS011;17300;50.374;8.006;2023-05-07T03:24:53;1.03;;;0.93;;
30519;SDS011;17300;50.374;8.006;2023-05-07T03:27:19;0.90;;;0.90;;
30519;SDS011;17300;50.374;8.006;2023-05-07T03:29:46;0.97;;;0.93;;
30519;SDS011;17300;50.374;8.006;2023-05-07T03:32:13;1.00;;;0.83;;
30519;SDS011;17300;50.374;8.006;2023-05-07T03:34:39;1.47;;;0.80;;
30519;SDS011;17300;50.374;8.006;2023-05-07T03:37:06;1.37;;;1.00;;
30519;SDS011;17300;50.374;8.006;2023-05-07T03:39:33;1.10;;;1.00;;
30519;SDS011;17300;50.374;8.006;2023-05-07T03:42:01;1.10;;;1.00;;
30519;SDS011;17300;50.374;8.006;2023-05-07T03:44:28;1.27;;;0.90;;
30519;SDS011;17300;50.374;8.006;2023-05-07T03:46:55;0.80;;;0.80;;
30519;SDS011;17300;50.374;8.006;2023-05-07T03:49:22;1.77;;;0.83;;
30519;SDS011;17300;50.374;8.006;2023-05-07T03:51:48;0.90;;;0.90;;
30519;SDS011;17300;50.374;8.006;2023-05-07T03:54:15;0.70;;;0.70;;
30519;SDS011;17300;50.374;8.006;2023-05-07T03:56:41;0.90;;;0.90;;
30519;SDS011;17300;50.374;8.006;2023-05-07T03:59:09;1.57;;;0.90;;
30519;SDS011;17300;50.374;8.006;2023-05-07T04:01:36;2.13;;;1.07;;
30519;SDS011;17300;50.374;8.006;2023-05-07T04:04:03;0.90;;;0.80;;
30519;SDS011;17300;50.374;8.006;2023-05-07T04:06:29;1.03;;;1.00;;
30519;SDS011;17300;50.374;8.006;2023-05-07T04:08:56;2.60;;;0.97;;
30519;SDS011;17300;50.374;8.006;2023-05-07T04:11:23;1.13;;;0.90;;
30519;SDS011;17300;50.374;8.006;2023-05-07T04:13:50;1.20;;;1.10;;
30519;SDS011;17300;50.374;8.006;2023-05-07T04:16:18;1.17;;;1.07;;
30519;SDS011;17300;50.374;8.006;2023-05-07T04:18:44;1.20;;;1.10;;
30519;SDS011;17300;50.374;8.006;2023-05-07T04:21:14;0.97;;;0.97;;
30519;SDS011;17300;50.374;8.006;2023-05-07T04:23:41;1.07;;;1.00;;
30519;SDS011;17300;50.374;8.006;2023-05-07T04:26:08;0.97;;;0.87;;
30519;SDS011;17300;50.374;8.006;2023-05-07T04:28:35;1.07;;;1.07;;
30519;SDS011;17300;50.374;8.006;2023-05-07T04:31:02;1.07;;;1.00;;
30519;SDS011;17300;50.374;8.006;2023-05-07T04:33:30;3.00;;;1.60;;
30519;SDS011;17300;50.374;8.006;2023-05-07T04:35:57;1.37;;;0.93;;
30519;SDS011;17300;50.374;8.006;2023-05-07T04:38:27;1.13;;;1.07;;
30519;SDS011;17300;50.374;8.006;2023-05-07T04:40:54;1.30;;;1.20;;
30519;SDS011;17300;50.374;8.006;2023-05-07T04:43:20;1.97;;;1.20;;
30519;SDS011;17300;50.374;8.006;2023-05-07T04:45:47;1.13;;;1.03;;
30519;SDS011;17300;50.374;8.006;2023-05-07T04:48:15;1.20;;;1.10;;
30519;SDS011;17300;50.374;8.006;2023-05-07T04:50:45;1.17;;;1.10;;
30519;SDS011;17300;50.374;8.006;2023-05-07T04:53:13;1.00;;;1.00;;
30519;SDS011;17300;50.374;8.006;2023-05-07T04:55:40;1.20;;;1.10;;
30519;SDS011;17300;50.374;8.006;2023-05-07T04:58:07;2.10;;;1.17;;
30519;SDS011;17300;50.374;8.006;2023-05-07T05:00:34;1.07;;;1.07;;
30519;SDS011;17300;50.374;8.006;2023-05-07T05:03:00;1.30;;;1.13;;
30519;SDS011;17300;50.374;8.006;2023-05-07T05:05:27;1.00;;;1.00;;
30519;SDS011;17300;50.374;8.006;2023-05-07T05:07:55;0.90;;;0.90;;
30519;SDS011;17300;50.374;8.006;2023-05-07T05:10:22;2.00;;;0.90;;
30519;SDS011;17300;50.374;8.006;2023-05-07T05:12:48;1.33;;;1.23;;
30519;SDS011;17300;50.374;8.006;2023-05-07T05:15:15;1.53;;;1.10;;
30519;SDS011;17300;50.374;8.006;2023-05-07T05:17:41;1.30;;;1.20;;
30519;SDS011;17300;50.374;8.006;2023-05-07T05:20:09;1.30;;;1.10;;
30519;SDS011;17300;50.374;8.006;2023-05-07T05:22:36;1.73;;;1.10;;
30519;SDS011;17300;50.374;8.006;2023-05-07T05:25:04;2.30;;;1.40;;
30519;SDS011;17300;50.374;8.006;2023-05-07T05:27:31;1.53;;;1.20;;
30519;SDS011;17300;50.374;8.006;2023-05-07T05:29:58;1.60;;;1.50;;
30519;SDS011;17300;50.374;8.006;2023-05-07T05:32:25;1.27;;;1.10;;
30519;SDS011;17300;50.374;8.006;2023-05-07T05:34:51;1.30;;;1.20;;
30519;SDS011;17300;50.374;8.006;2023-05-07T05:37:18;1.40;;;1.30;;
30519;SDS011;17300;50.374;8.006;2023-05-07T05:39:45;1.77;;;1.30;;
30519;SDS011;17300;50.374;8.006;2023-05-07T05:42:13;1.40;;;1.30;;
30519;SDS011;17300;50.374;8.006;2023-05-07T05:44:39;1.20;;;1.20;;
30519;SDS011;17300;50.374;8.006;2023-05-07T05:47:06;1.30;;;1.23;;
30519;SDS011;17300;50.374;8.006;2023-05-07T05:49:33;1.40;;;1.30;;
30519;SDS011;17300;50.374;8.006;2023-05-07T05:52:00;1.30;;;1.20;;
30519;SDS011;17300;50.374;8.006;2023-05-07T05:54:26;1.37;;;1.30;;
30519;SDS011;17300;50.374;8.006;2023-05-07T05:56:53;1.50;;;1.40;;
30519;SDS011;17300;50.374;8.006;2023-05-07T05:59:21;2.77;;;1.70;;
30519;SDS011;17300;50.374;8.006;2023-05-07T06:01:47;1.60;;;1.27;;
30519;SDS011;17300;50.374;8.006;2023-05-07T06:04:14;1.70;;;1.60;;
30519;SDS011;17300;50.374;8.006;2023-05-07T06:06:42;1.20;;;1.20;;
30519;SDS011;17300;50.374;8.006;2023-05-07T06:09:08;1.53;;;1.43;;
30519;SDS011;17300;50.374;8.006;2023-05-07T06:11:35;1.37;;;1.23;;
30519;SDS011;17300;50.374;8.006;2023-05-07T06:14:01;1.40;;;1.30;;
30519;SDS011;17300;50.374;8.006;2023-05-07T06:16:29;1.90;;;1.50;;
30519;SDS011;17300;50.374;8.006;2023-05-07T06:18:56;2.65;;;1.38;;
30519;SDS011;17300;50.374;8.006;2023-05-07T06:21:23;1.10;;;1.10;;
30519;SDS011;17300;50.374;8.006;2023-05-07T06:23:49;1.17;;;1.10;;
30519;SDS011;17300;50.374;8.006;2023-05-07T06:26:17;1.50;;;1.40;;
30519;SDS011;17300;50.374;8.006;2023-05-07T06:28:43;1.30;;;1.20;;
30519;SDS011;17300;50.374;8.006;2023-05-07T06:31:10;1.33;;;1.23;;
30519;SDS011;17300;50.374;8.006;2023-05-07T06:33:39;1.70;;;1.60;;
30519;SDS011;17300;50.374;8.006;2023-05-07T06:36:06;1.83;;;1.65;;
30519;SDS011;17300;50.374;8.006;2023-05-07T06:38:33;1.33;;;1.23;;
30519;SDS011;17300;50.374;8.006;2023-05-07T06:41:00;1.75;;;1.65;;
30519;SDS011;17300;50.374;8.006;2023-05-07T06:43:26;1.50;;;1.40;;
30519;SDS011;17300;50.374;8.006;2023-05-07T06:45:53;2.13;;;1.55;;
30519;SDS011;17300;50.374;8.006;2023-05-07T06:48:20;1.60;;;1.50;;
30519;SDS011;17300;50.374;8.006;2023-05-07T06:50:48;2.08;;;1.40;;
30519;SDS011;17300;50.374;8.006;2023-05-07T06:53:14;1.50;;;1.40;;
30519;SDS011;17300;50.374;8.006;2023-05-07T06:55:41;1.23;;;1.20;;
30519;SDS011;17300;50.374;8.006;2023-05-07T06:58:08;1.90;;;1.48;;
30519;SDS011;17300;50.374;8.006;2023-05-07T07:00:34;1.65;;;1.55;;
30519;SDS011;17300;50.374;8.006;2023-05-07T07:03:01;2.15;;;1.67;;
30519;SDS011;17300;50.374;8.006;2023-05-07T07:05:28;1.25;;;1.25;;
30519;SDS011;17300;50.374;8.006;2023-05-07T07:07:56;1.45;;;1.35;;
30519;SDS011;17300;50.374;8.006;2023-05-07T07:10:23;1.38;;;1.27;;
30519;SDS011;17300;50.374;8.006;2023-05-07T07:12:49;1.25;;;1.25;;
30519;SDS011;17300;50.374;8.006;2023-05-07T07:15:17;3.33;;;1.80;;
30519;SDS011;17300;50.374;8.006;2023-05-07T07:17:45;1.73;;;1.63;;
30519;SDS011;17300;50.374;8.006;2023-05-07T07:20:12;2.88;;;1.70;;
30519;SDS011;17300;50.374;8.006;2023-05-07T07:22:38;1.50;;;1.40;;
30519;SDS011;17300;50.374;8.006;2023-05-07T07:25:07;1.65;;;1.40;;
30519;SDS011;17300;50.374;8.006;2023-05-07T07:27:34;1.45;;;1.35;;
30519;SDS011;17300;50.374;8.006;2023-05-07T07:30:01;1.70;;;1.60;;
30519;SDS011;17300;50.374;8.006;2023-05-07T07:32:28;1.77;;;1.67;;
30519;SDS011;17300;50.374;8.006;2023-05-07T07:34:57;2.08;;;1.48;;
30519;SDS011;17300;50.374;8.006;2023-05-07T07:46:55;1.77;;;1.67;;
30519;SDS011;17300;50.374;8.006;2023-05-07T07:49:25;1.80;;;1.70;;
30519;SDS011;17300;50.374;8.006;2023-05-07T07:52:03;3.83;;;1.60;;
30519;SDS011;17300;50.374;8.006;2023-05-07T07:54:30;1.90;;;1.80;;
30519;SDS011;17300;50.374;8.006;2023-05-07T07:56:59;1.55;;;1.45;;
30519;SDS011;17300;50.374;8.006;2023-05-07T07:59:33;1.60;;;1.50;;
30519;SDS011;17300;50.374;8.006;2023-05-07T08:01:59;1.65;;;1.55;;
30519;SDS011;17300;50.374;8.006;2023-05-07T08:04:26;1.75;;;1.42;;
30519;SDS011;17300;50.374;8.006;2023-05-07T08:06:53;2.10;;;1.70;;
30519;SDS011;17300;50.374;8.006;2023-05-07T08:09:21;1.55;;;1.40;;
30519;SDS011;17300;50.374;8.006;2023-05-07T08:11:47;2.38;;;1.70;;
30519;SDS011;17300;50.374;8.006;2023-05-07T08:14:15;3.47;;;1.80;;
30519;SDS011;17300;50.374;8.006;2023-05-07T08:16:42;1.85;;;1.75;;
30519;SDS011;17300;50.374;8.006;2023-05-07T08:19:09;1.70;;;1.60;;
30519;SDS011;17300;50.374;8.006;2023-05-07T08:21:57;3.03;;;1.73;;
30519;SDS011;17300;50.374;8.006;2023-05-07T08:24:24;1.67;;;1.58;;
30519;SDS011;17300;50.374;8.006;2023-05-07T08:26:50;1.60;;;1.50;;
30519;SDS011;17300;50.374;8.006;2023-05-07T08:29:18;1.55;;;1.45;;
30519;SDS011;17300;50.374;8.006;2023-05-07T08:31:49;2.25;;;1.63;;
30519;SDS011;17300;50.374;8.006;2023-05-07T08:34:16;2.08;;;1.63;;
30519;SDS011;17300;50.374;8.006;2023-05-07T08:36:42;1.55;;;1.45;;
30519;SDS011;17300;50.374;8.006;2023-05-07T08:39:12;1.75;;;1.65;;
30519;SDS011;17300;50.374;8.006;2023-05-07T08:41:38;1.88;;;1.70;;
30519;SDS011;17300;50.374;8.006;2023-05-07T08:44:11;1.45;;;1.35;;
30519;SDS011;17300;50.374;8.006;2023-05-07T08:46:43;2.53;;;1.70;;
30519;SDS011;17300;50.374;8.006;2023-05-07T08:49:22;2.03;;;1.75;;
30519;SDS011;17300;50.374;8.006;2023-05-07T08:51:52;1.67;;;1.58;;
30519;SDS011;17300;50.374;8.006;2023-05-07T08:54:21;1.75;;;1.65;;
30519;SDS011;17300;50.374;8.006;2023-05-07T08:56:48;1.73;;;1.63;;
30519;SDS011;17300;50.374;8.006;2023-05-07T08:59:15;1.60;;;1.50;;
30519;SDS011;17300;50.374;8.006;2023-05-07T09:01:43;1.88;;;1.45;;
30519;SDS011;17300;50.374;8.006;2023-05-07T09:04:09;3.83;;;1.50;;
30519;SDS011;17300;50.374;8.006;2023-05-07T09:06:37;1.52;;;1.50;;
30519;SDS011;17300;50.374;8.006;2023-05-07T09:09:06;1.95;;;1.83;;
30519;SDS011;17300;50.374;8.006;2023-05-07T09:11:34;1.70;;;1.60;;
30519;SDS011;17300;50.374;8.006;2023-05-07T09:14:00;1.73;;;1.60;;
30519;SDS011;17300;50.374;8.006;2023-05-07T09:16:28;2.38;;;1.70;;
30519;SDS011;17300;50.374;8.006;2023-05-07T09:18:57;2.05;;;1.85;;
30519;SDS011;17300;50.374;8.006;2023-05-07T09:21:24;1.83;;;1.67;;
30519;SDS011;17300;50.374;8.006;2023-05-07T09:23:52;1.75;;;1.65;;
30519;SDS011;17300;50.374;8.006;2023-05-07T09:26:20;1.65;;;1.55;;
30519;SDS011;17300;50.374;8.006;2023-05-07T09:28:47;2.10;;;1.75;;
30519;SDS011;17300;50.374;8.006;2023-05-07T09:31:14;1.98;;;1.88;;
30519;SDS011;17300;50.374;8.006;2023-05-07T09:33:41;1.98;;;1.83;;
30519;SDS011;17300;50.374;8.006;2023-05-07T09:36:09;2.35;;;1.80;;
30519;SDS011;17300;50.374;8.006;2023-05-07T09:38:36;1.77;;;1.67;;
30519;SDS011;17300;50.374;8.006;2023-05-07T09:41:04;2.28;;;1.50;;
30519;SDS011;17300;50.374;8.006;2023-05-07T09:43:32;2.00;;;1.80;;
30519;SDS011;17300;50.374;8.006;2023-05-07T09:46:01;1.80;;;1.70;;
30519;SDS011;17300;50.374;8.006;2023-05-07T09:48:29;2.28;;;1.70;;
30519;SDS011;17300;50.374;8.006;2023-05-07T09:50:57;2.00;;;1.90;;
30519;SDS011;17300;50.374;8.006;2023-05-07T09:53:30;1.70;;;1.60;;
30519;SDS011;17300;50.374;8.006;2023-05-07T09:55:57;1.55;;;1.45;;
30519;SDS011;17300;50.374;8.006;2023-05-07T09:58:25;2.15;;;2.00;;
30519;SDS011;17300;50.374;8.006;2023-05-07T10:00:52;1.92;;;1.83;;
30519;SDS011;17300;50.374;8.006;2023-05-07T10:03:19;1.92;;;1.83;;
30519;SDS011;17300;50.374;8.006;2023-05-07T10:05:47;1.73;;;1.63;;
30519;SDS011;17300;50.374;8.006;2023-05-07T10:08:29;1.75;;;1.65;;
30519;SDS011;17300;50.374;8.006;2023-05-07T10:11:32;1.65;;;1.55;;
30519;SDS011;17300;50.374;8.006;2023-05-07T10:14:15;2.42;;;2.20;;
30519;SDS011;17300;50.374;8.006;2023-05-07T10:16:43;2.00;;;1.85;;
30519;SDS011;17300;50.374;8.006;2023-05-07T10:19:10;2.40;;;2.17;;
30519;SDS011;17300;50.374;8.006;2023-05-07T10:21:37;2.05;;;1.85;;
30519;SDS011;17300;50.374;8.006;2023-05-07T10:24:09;1.95;;;1.85;;
30519;SDS011;17300;50.374;8.006;2023-05-07T10:26:39;1.95;;;1.85;;
30519;SDS011;17300;50.374;8.006;2023-05-07T10:29:11;2.03;;;1.80;;
30519;SDS011;17300;50.374;8.006;2023-05-07T10:31:46;2.42;;;1.73;;
30519;SDS011;17300;50.374;8.006;2023-05-07T10:34:18;2.10;;;1.88;;
30519;SDS011;17300;50.374;8.006;2023-05-07T10:36:48;2.35;;;2.17;;
30519;SDS011;17300;50.374;8.006;2023-05-07T10:39:18;1.98;;;1.88;;
30519;SDS011;17300;50.374;8.006;2023-05-07T10:41:45;1.95;;;1.85;;
30519;SDS011;17300;50.374;8.006;2023-05-07T10:44:15;2.05;;;1.85;;
30519;SDS011;17300;50.374;8.006;2023-05-07T10:47:03;2.30;;;2.20;;
30519;SDS011;17300;50.374;8.006;2023-05-07T10:49:31;2.00;;;1.90;;
30519;SDS011;17300;50.374;8.006;2023-05-07T10:52:10;2.05;;;1.83;;
30519;SDS011;17300;50.374;8.006;2023-05-07T10:54:41;1.77;;;1.67;;
30519;SDS011;17300;50.374;8.006;2023-05-07T10:59:58;1.77;;;1.67;;
30519;SDS011;17300;50.374;8.006;2023-05-07T11:02:31;1.98;;;1.83;;
30519;SDS011;17300;50.374;8.006;2023-05-07T11:05:32;1.70;;;1.60;;
30519;SDS011;17300;50.374;8.006;2023-05-07T11:08:00;2.10;;;1.90;;
30519;SDS011;17300;50.374;8.006;2023-05-07T11:13:17;1.60;;;1.50;;
30519;SDS011;17300;50.374;8.006;2023-05-07T11:16:04;1.70;;;1.60;;
30519;SDS011;17300;50.374;8.006;2023-05-07T11:18:45;1.80;;;1.70;;
30519;SDS011;17300;50.374;8.006;2023-05-07T11:21:15;1.65;;;1.55;;
30519;SDS011;17300;50.374;8.006;2023-05-07T11:23:58;1.83;;;1.73;;
30519;SDS011;17300;50.374;8.006;2023-05-07T11:26:27;1.98;;;1.75;;
30519;SDS011;17300;50.374;8.006;2023-05-07T11:28:56;3.30;;;1.92;;
30519;SDS011;17300;50.374;8.006;2023-05-07T11:31:25;1.85;;;1.73;;
30519;SDS011;17300;50.374;8.006;2023-05-07T11:33:54;2.08;;;1.73;;
30519;SDS011;17300;50.374;8.006;2023-05-07T11:36:22;1.75;;;1.65;;
30519;SDS011;17300;50.374;8.006;2023-05-07T11:38:50;2.03;;;1.92;;
30519;SDS011;17300;50.374;8.006;2023-05-07T11:41:16;1.95;;;1.85;;
30519;SDS011;17300;50.374;8.006;2023-05-07T11:43:59;1.98;;;1.88;;
30519;SDS011;17300;50.374;8.006;2023-05-07T11:46:26;1.95;;;1.85;;
30519;SDS011;17300;50.374;8.006;2023-05-07T11:48:54;6.00;;;2.45;;
30519;SDS011;17300;50.374;8.006;2023-05-07T11:51:22;2.38;;;2.10;;
30519;SDS011;17300;50.374;8.006;2023-05-07T11:53:50;2.20;;;2.10;;
30519;SDS011;17300;50.374;8.006;2023-05-07T11:56:18;2.20;;;2.00;;
30519;SDS011;17300;50.374;8.006;2023-05-07T11:58:46;2.38;;;2.28;;
30519;SDS011;17300;50.374;8.006;2023-05-07T12:01:15;2.08;;;1.98;;
30519;SDS011;17300;50.374;8.006;2023-05-07T12:03:43;2.15;;;2.05;;
30519;SDS011;17300;50.374;8.006;2023-05-07T12:06:11;2.05;;;1.90;;
30519;SDS011;17300;50.374;8.006;2023-05-07T12:08:39;2.55;;;2.10;;
30519;SDS011;17300;50.374;8.006;2023-05-07T12:11:07;1.95;;;1.85;;
30519;SDS011;17300;50.374;8.006;2023-05-07T12:13:36;1.60;;;1.50;;
30519;SDS011;17300;50.374;8.006;2023-05-07T12:16:03;2.00;;;1.90;;
30519;SDS011;17300;50.374;8.006;2023-05-07T12:18:32;2.05;;;1.88;;
30519;SDS011;17300;50.374;8.006;2023-05-07T12:21:01;1.80;;;1.70;;
30519;SDS011;17300;50.374;8.006;2023-05-07T12:23:29;2.33;;;2.13;;
30519;SDS011;17300;50.374;8.006;2023-05-07T12:25:55;1.98;;;1.88;;
30519;SDS011;17300;50.374;8.006;2023-05-07T12:28:22;2.00;;;1.90;;
30519;SDS011;17300;50.374;8.006;2023-05-07T12:30:50;2.28;;;1.80;;
30519;SDS011;17300;50.374;8.006;2023-05-07T12:33:18;1.60;;;1.50;;
30519;SDS011;17300;50.374;8.006;2023-05-07T12:35:52;1.90;;;1.80;;
30519;SDS011;17300;50.374;8.006;2023-05-07T12:38:19;1.75;;;1.65;;
30519;SDS011;17300;50.374;8.006;2023-05-07T12:40:47;1.83;;;1.73;;
30519;SDS011;17300;50.374;8.006;2023-05-07T12:43:16;2.22;;;1.95;;
30519;SDS011;17300;50.374;8.006;2023-05-07T12:45:44;2.15;;;2.05;;
30519;SDS011;17300;50.374;8.006;2023-05-07T12:48:11;2.10;;;1.90;;
30519;SDS011;17300;50.374;8.006;2023-05-07T12:50:38;1.85;;;1.75;;
30519;SDS011;17300;50.374;8.006;2023-05-07T12:53:07;1.83;;;1.73;;
30519;SDS011;17300;50.374;8.006;2023-05-07T12:55:39;2.25;;;2.05;;
30519;SDS011;17300;50.374;8.006;2023-05-07T12:58:07;1.95;;;1.85;;
30519;SDS011;17300;50.374;8.006;2023-05-07T13:00:35;2.30;;;2.10;;
30519;SDS011;17300;50.374;8.006;2023-05-07T13:03:03;2.05;;;1.95;;
30519;SDS011;17300;50.374;8.006;2023-05-07T13:05:30;2.33;;;2.20;;
30519;SDS011;17300;50.374;8.006;2023-05-07T13:07:57;1.90;;;1.80;;
30519;SDS011;17300;50.374;8.006;2023-05-07T13:10:26;1.90;;;1.63;;
30519;SDS011;17300;50.374;8.006;2023-05-07T13:12:53;1.70;;;1.60;;
30519;SDS011;17300;50.374;8.006;2023-05-07T13:15:20;1.67;;;1.58;;
30519;SDS011;17300;50.374;8.006;2023-05-07T13:17:48;2.05;;;1.90;;
30519;SDS011;17300;50.374;8.006;2023-05-07T13:20:15;1.88;;;1.77;;
30519;SDS011;17300;50.374;8.006;2023-05-07T13:22:42;1.92;;;1.83;;
30519;SDS011;17300;50.374;8.006;2023-05-07T13:25:08;1.90;;;1.80;;
30519;SDS011;17300;50.374;8.006;2023-05-07T13:27:37;1.95;;;1.85;;
30519;SDS011;17300;50.374;8.006;2023-05-07T13:30:04;1.80;;;1.70;;
30519;SDS011;17300;50.374;8.006;2023-05-07T13:32:33;1.90;;;1.70;;
30519;SDS011;17300;50.374;8.006;2023-05-07T13:35:01;1.80;;;1.70;;
30519;SDS011;17300;50.374;8.006;2023-05-07T13:37:28;1.40;;;1.30;;
30519;SDS011;17300;50.374;8.006;2023-05-07T13:39:55;1.60;;;1.50;;
30519;SDS011;17300;50.374;8.006;2023-05-07T13:42:29;1.90;;;1.80;;
30519;SDS011;17300;50.374;8.006;2023-05-07T13:44:58;1.98;;;1.88;;
30519;SDS011;17300;50.374;8.006;2023-05-07T13:47:25;1.90;;;1.80;;
30519;SDS011;17300;50.374;8.006;2023-05-07T13:49:52;1.70;;;1.60;;
30519;SDS011;17300;50.374;8.006;2023-05-07T13:52:18;2.60;;;1.95;;
30519;SDS011;17300;50.374;8.006;2023-05-07T13:54:45;1.77;;;1.67;;
30519;SDS011;17300;50.374;8.006;2023-05-07T13:57:12;2.00;;;1.90;;
30519;SDS011;17300;50.374;8.006;2023-05-07T13:59:38;1.90;;;1.80;;
30519;SDS011;17300;50.374;8.006;2023-05-07T14:02:07;2.30;;;1.83;;
30519;SDS011;17300;50.374;8.006;2023-05-07T14:04:34;1.92;;;1.83;;
30519;SDS011;17300;50.374;8.006;2023-05-07T14:07:01;1.73;;;1.63;;
30519;SDS011;17300;50.374;8.006;2023-05-07T14:09:27;1.80;;;1.70;;
30519;SDS011;17300;50.374;8.006;2023-05-07T14:11:54;1.85;;;1.75;;
30519;SDS011;17300;50.374;8.006;2023-05-07T14:14:21;1.70;;;1.60;;
30519;SDS011;17300;50.374;8.006;2023-05-07T14:16:47;1.63;;;1.52;;
30519;SDS011;17300;50.374;8.006;2023-05-07T14:19:15;1.70;;;1.60;;
30519;SDS011;17300;50.374;8.006;2023-05-07T14:21:42;2.00;;;1.60;;
30519;SDS011;17300;50.374;8.006;2023-05-07T14:24:09;1.65;;;1.55;;
30519;SDS011;17300;50.374;8.006;2023-05-07T14:26:36;1.80;;;1.70;;
30519;SDS011;17300;50.374;8.006;2023-05-07T14:29:02;1.60;;;1.50;;
30519;SDS011;17300;50.374;8.006;2023-05-07T14:31:29;1.60;;;1.50;;
30519;SDS011;17300;50.374;8.006;2023-05-07T14:33:56;1.65;;;1.48;;
30519;SDS011;17300;50.374;8.006;2023-05-07T14:36:25;1.70;;;1.60;;
30519;SDS011;17300;50.374;8.006;2023-05-07T14:38:52;1.80;;;1.70;;
30519;SDS011;17300;50.374;8.006;2023-05-07T14:41:19;1.63;;;1.52;;
30519;SDS011;17300;50.374;8.006;2023-05-07T14:43:46;1.65;;;1.55;;
30519;SDS011;17300;50.374;8.006;2023-05-07T14:46:15;1.63;;;1.52;;
30519;SDS011;17300;50.374;8.006;2023-05-07T14:48:42;1.55;;;1.45;;
30519;SDS011;17300;50.374;8.006;2023-05-07T14:51:09;1.52;;;1.42;;
30519;SDS011;17300;50.374;8.006;2023-05-07T14:53:38;1.67;;;1.58;;
30519;SDS011;17300;50.374;8.006;2023-05-07T14:56:05;1.85;;;1.70;;
30519;SDS011;17300;50.374;8.006;2023-05-07T14:58:31;1.90;;;1.70;;
30519;SDS011;17300;50.374;8.006;2023-05-07T15:00:58;1.70;;;1.60;;
30519;SDS011;17300;50.374;8.006;2023-05-07T15:03:25;1.80;;;1.70;;
30519;SDS011;17300;50.374;8.006;2023-05-07T15:05:52;1.63;;;1.52;;
30519;SDS011;17300;50.374;8.006;2023-05-07T15:08:18;1.85;;;1.50;;